sensor_id;sensor_type;location;lat;lon;timestamp;P1;durP1;ratioP1;P2;durP2;ratioP2
21030;SDS011;61072;47.808;7.636;2022-08-19T00:01:59;5.85;;;5.25;;
21030;SDS011;61072;47.808;7.636;2022-08-19T00:04:27;11.65;;;6.28;;
21030;SDS011;61072;47.808;7.636;2022-08-19T00:06:56;8.48;;;5.82;;
21030;SDS011;61072;47.808;7.636;2022-08-19T00:09:24;9.07;;;5.90;;
21030;SDS011;61072;47.808;7.636;2022-08-19T00:11:51;6.55;;;5.95;;
21030;SDS011;61072;47.808;7.636;2022-08-19T00:14:19;6.93;;;6.22;;
21030;SDS011;61072;47.808;7.636;2022-08-19T00:16:47;9.93;;;7.15;;
21030;SDS011;61072;47.808;7.636;2022-08-19T00:19:15;15.45;;;6.85;;
21030;SDS011;61072;47.808;7.636;2022-08-19T00:21:42;10.32;;;6.63;;
21030;SDS011;61072;47.808;7.636;2022-08-19T00:24:10;9.70;;;6.95;;
21030;SDS011;61072;47.808;7.636;2022-08-19T00:26:38;7.20;;;6.50;;
21030;SDS011;61072;47.808;7.636;2022-08-19T00:29:06;8.07;;;6.95;;
21030;SDS011;61072;47.808;7.636;2022-08-19T00:31:35;9.52;;;6.80;;
21030;SDS011;61072;47.808;7.636;2022-08-19T00:34:02;9.18;;;6.47;;
21030;SDS011;61072;47.808;7.636;2022-08-19T00:36:30;7.80;;;6.03;;
21030;SDS011;61072;47.808;7.636;2022-08-19T00:38:59;8.75;;;6.82;;
21030;SDS011;61072;47.808;7.636;2022-08-19T00:41:26;9.05;;;6.53;;
21030;SDS011;61072;47.808;7.636;2022-08-19T00:44:05;7.38;;;6.43;;
21030;SDS011;61072;47.808;7.636;2022-08-19T00:46:39;7.15;;;6.28;;
21030;SDS011;61072;47.808;7.636;2022-08-19T00:49:22;8.27;;;6.32;;
21030;SDS011;61072;47.808;7.636;2022-08-19T00:51:53;8.25;;;6.28;;
21030;SDS011;61072;47.808;7.636;2022-08-19T00:54:26;10.60;;;6.68;;
21030;SDS011;61072;47.808;7.636;2022-08-19T00:56:56;7.00;;;6.35;;
21030;SDS011;61072;47.808;7.636;2022-08-19T00:59:25;8.65;;;6.85;;
21030;SDS011;61072;47.808;7.636;2022-08-19T01:02:14;7.85;;;7.05;;
21030;SDS011;61072;47.808;7.636;2022-08-19T01:04:42;10.10;;;6.80;;
21030;SDS011;61072;47.808;7.636;2022-08-19T01:07:09;11.40;;;7.30;;
21030;SDS011;61072;47.808;7.636;2022-08-19T01:09:42;8.07;;;6.95;;
21030;SDS011;61072;47.808;7.636;2022-08-19T01:12:09;10.05;;;8.00;;
21030;SDS011;61072;47.808;7.636;2022-08-19T01:14:36;10.35;;;7.15;;
21030;SDS011;61072;47.808;7.636;2022-08-19T01:17:07;7.55;;;6.68;;
21030;SDS011;61072;47.808;7.636;2022-08-19T01:19:36;10.65;;;7.35;;
21030;SDS011;61072;47.808;7.636;2022-08-19T01:22:25;10.82;;;7.63;;
21030;SDS011;61072;47.808;7.636;2022-08-19T01:24:59;8.70;;;7.90;;
21030;SDS011;61072;47.808;7.636;2022-08-19T01:27:26;9.32;;;7.30;;
21030;SDS011;61072;47.808;7.636;2022-08-19T01:30:10;8.98;;;8.02;;
21030;SDS011;61072;47.808;7.636;2022-08-19T01:32:42;10.40;;;7.07;;
21030;SDS011;61072;47.808;7.636;2022-08-19T01:35:10;7.88;;;7.07;;
21030;SDS011;61072;47.808;7.636;2022-08-19T01:37:47;12.15;;;7.50;;
21030;SDS011;61072;47.808;7.636;2022-08-19T01:40:21;9.45;;;8.07;;
21030;SDS011;61072;47.808;7.636;2022-08-19T01:42:51;8.85;;;7.60;;
21030;SDS011;61072;47.808;7.636;2022-08-19T01:45:20;12.13;;;7.47;;
21030;SDS011;61072;47.808;7.636;2022-08-19T01:47:49;9.85;;;7.60;;
21030;SDS011;61072;47.808;7.636;2022-08-19T01:50:26;8.23;;;7.28;;
21030;SDS011;61072;47.808;7.636;2022-08-19T01:52:53;11.35;;;7.97;;
21030;SDS011;61072;47.808;7.636;2022-08-19T01:55:31;11.25;;;8.60;;
21030;SDS011;61072;47.808;7.636;2022-08-19T01:57:59;15.93;;;8.40;;
21030;SDS011;61072;47.808;7.636;2022-08-19T02:00:29;11.35;;;7.43;;
21030;SDS011;61072;47.808;7.636;2022-08-19T02:02:58;8.98;;;7.82;;
21030;SDS011;61072;47.808;7.636;2022-08-19T02:05:25;9.10;;;8.18;;
21030;SDS011;61072;47.808;7.636;2022-08-19T02:07:51;9.88;;;8.88;;
21030;SDS011;61072;47.808;7.636;2022-08-19T02:10:20;11.68;;;8.32;;
21030;SDS011;61072;47.808;7.636;2022-08-19T02:12:48;9.52;;;8.30;;
21030;SDS011;61072;47.808;7.636;2022-08-19T02:15:16;9.60;;;7.82;;
21030;SDS011;61072;47.808;7.636;2022-08-19T02:17:45;9.27;;;8.25;;
21030;SDS011;61072;47.808;7.636;2022-08-19T02:20:12;11.43;;;7.78;;
21030;SDS011;61072;47.808;7.636;2022-08-19T02:22:40;9.30;;;8.25;;
21030;SDS011;61072;47.808;7.636;2022-08-19T02:25:12;9.40;;;8.45;;
21030;SDS011;61072;47.808;7.636;2022-08-19T02:27:40;9.20;;;8.35;;
21030;SDS011;61072;47.808;7.636;2022-08-19T02:30:09;10.48;;;9.00;;
21030;SDS011;61072;47.808;7.636;2022-08-19T02:32:39;9.23;;;8.32;;
21030;SDS011;61072;47.808;7.636;2022-08-19T02:35:10;9.15;;;8.25;;
21030;SDS011;61072;47.808;7.636;2022-08-19T02:37:38;11.15;;;9.00;;
21030;SDS011;61072;47.808;7.636;2022-08-19T02:40:24;10.85;;;7.90;;
21030;SDS011;61072;47.808;7.636;2022-08-19T02:42:51;11.27;;;8.52;;
21030;SDS011;61072;47.808;7.636;2022-08-19T02:45:18;10.70;;;8.95;;
21030;SDS011;61072;47.808;7.636;2022-08-19T02:47:45;9.90;;;8.70;;
21030;SDS011;61072;47.808;7.636;2022-08-19T02:50:12;12.02;;;9.00;;
21030;SDS011;61072;47.808;7.636;2022-08-19T02:52:39;9.80;;;8.40;;
21030;SDS011;61072;47.808;7.636;2022-08-19T02:55:07;10.27;;;8.07;;
21030;SDS011;61072;47.808;7.636;2022-08-19T02:57:34;12.70;;;9.07;;
21030;SDS011;61072;47.808;7.636;2022-08-19T03:00:04;9.23;;;8.30;;
21030;SDS011;61072;47.808;7.636;2022-08-19T03:04:58;12.10;;;8.65;;
21030;SDS011;61072;47.808;7.636;2022-08-19T03:07:25;9.90;;;8.73;;
21030;SDS011;61072;47.808;7.636;2022-08-19T03:09:52;12.70;;;9.48;;
21030;SDS011;61072;47.808;7.636;2022-08-19T03:12:18;10.43;;;8.75;;
21030;SDS011;61072;47.808;7.636;2022-08-19T03:14:45;10.55;;;9.45;;
21030;SDS011;61072;47.808;7.636;2022-08-19T03:17:12;9.50;;;8.57;;
21030;SDS011;61072;47.808;7.636;2022-08-19T03:19:39;13.30;;;9.75;;
21030;SDS011;61072;47.808;7.636;2022-08-19T03:22:06;12.50;;;10.18;;
21030;SDS011;61072;47.808;7.636;2022-08-19T03:24:34;10.60;;;9.50;;
21030;SDS011;61072;47.808;7.636;2022-08-19T03:27:00;14.43;;;10.00;;
21030;SDS011;61072;47.808;7.636;2022-08-19T03:29:28;13.32;;;10.45;;
21030;SDS011;61072;47.808;7.636;2022-08-19T03:31:58;10.93;;;9.65;;
21030;SDS011;61072;47.808;7.636;2022-08-19T03:34:30;13.18;;;10.55;;
21030;SDS011;61072;47.808;7.636;2022-08-19T03:36:59;10.63;;;9.55;;
21030;SDS011;61072;47.808;7.636;2022-08-19T03:39:31;12.00;;;10.80;;
21030;SDS011;61072;47.808;7.636;2022-08-19T03:41:58;11.32;;;10.13;;
21030;SDS011;61072;47.808;7.636;2022-08-19T03:44:48;16.88;;;10.25;;
21030;SDS011;61072;47.808;7.636;2022-08-19T03:47:15;12.50;;;9.95;;
21030;SDS011;61072;47.808;7.636;2022-08-19T03:49:42;10.75;;;9.68;;
21030;SDS011;61072;47.808;7.636;2022-08-19T03:52:10;12.23;;;11.05;;
21030;SDS011;61072;47.808;7.636;2022-08-19T03:54:37;13.25;;;10.93;;
21030;SDS011;61072;47.808;7.636;2022-08-19T03:57:04;13.70;;;12.30;;
21030;SDS011;61072;47.808;7.636;2022-08-19T03:59:32;12.98;;;11.65;;
21030;SDS011;61072;47.808;7.636;2022-08-19T04:02:02;18.47;;;12.40;;
21030;SDS011;61072;47.808;7.636;2022-08-19T04:04:35;13.73;;;11.30;;
21030;SDS011;61072;47.808;7.636;2022-08-19T04:07:03;19.73;;;12.25;;
21030;SDS011;61072;47.808;7.636;2022-08-19T04:09:30;14.32;;;11.73;;
21030;SDS011;61072;47.808;7.636;2022-08-19T04:11:57;12.63;;;11.38;;
21030;SDS011;61072;47.808;7.636;2022-08-19T04:14:25;13.23;;;11.93;;
21030;SDS011;61072;47.808;7.636;2022-08-19T04:16:54;13.93;;;11.27;;
21030;SDS011;61072;47.808;7.636;2022-08-19T04:19:22;12.75;;;11.50;;
21030;SDS011;61072;47.808;7.636;2022-08-19T04:21:49;13.20;;;11.88;;
21030;SDS011;61072;47.808;7.636;2022-08-19T04:24:18;17.42;;;12.30;;
21030;SDS011;61072;47.808;7.636;2022-08-19T04:26:46;16.15;;;11.80;;
21030;SDS011;61072;47.808;7.636;2022-08-19T04:29:15;11.93;;;10.70;;
21030;SDS011;61072;47.808;7.636;2022-08-19T04:31:48;12.82;;;11.43;;
21030;SDS011;61072;47.808;7.636;2022-08-19T04:34:16;13.07;;;11.13;;
21030;SDS011;61072;47.808;7.636;2022-08-19T04:36:48;13.38;;;12.00;;
21030;SDS011;61072;47.808;7.636;2022-08-19T04:39:18;13.40;;;12.00;;
21030;SDS011;61072;47.808;7.636;2022-08-19T04:44:33;16.10;;;10.63;;
21030;SDS011;61072;47.808;7.636;2022-08-19T04:47:04;11.95;;;10.65;;
21030;SDS011;61072;47.808;7.636;2022-08-19T04:49:36;11.15;;;10.15;;
21030;SDS011;61072;47.808;7.636;2022-08-19T04:52:02;12.30;;;9.85;;
21030;SDS011;61072;47.808;7.636;2022-08-19T04:54:29;10.43;;;9.38;;
21030;SDS011;61072;47.808;7.636;2022-08-19T04:57:05;10.70;;;9.55;;
21030;SDS011;61072;47.808;7.636;2022-08-19T04:59:37;11.00;;;9.20;;
21030;SDS011;61072;47.808;7.636;2022-08-19T05:02:04;10.05;;;9.00;;
21030;SDS011;61072;47.808;7.636;2022-08-19T05:04:34;10.43;;;9.38;;
21030;SDS011;61072;47.808;7.636;2022-08-19T05:07:05;11.95;;;9.27;;
21030;SDS011;61072;47.808;7.636;2022-08-19T05:09:34;10.32;;;9.25;;
21030;SDS011;61072;47.808;7.636;2022-08-19T05:12:21;10.00;;;8.90;;
21030;SDS011;61072;47.808;7.636;2022-08-19T05:14:54;11.95;;;9.90;;
21030;SDS011;61072;47.808;7.636;2022-08-19T05:17:22;11.63;;;8.70;;
21030;SDS011;61072;47.808;7.636;2022-08-19T05:19:53;10.48;;;9.23;;
21030;SDS011;61072;47.808;7.636;2022-08-19T05:22:39;9.57;;;8.68;;
21030;SDS011;61072;47.808;7.636;2022-08-19T05:25:09;9.40;;;8.50;;
21030;SDS011;61072;47.808;7.636;2022-08-19T05:27:39;10.60;;;8.57;;
21030;SDS011;61072;47.808;7.636;2022-08-19T05:30:07;10.95;;;8.38;;
21030;SDS011;61072;47.808;7.636;2022-08-19T05:32:34;11.98;;;9.95;;
21030;SDS011;61072;47.808;7.636;2022-08-19T05:35:01;10.25;;;9.18;;
21030;SDS011;61072;47.808;7.636;2022-08-19T05:37:28;9.75;;;8.70;;
21030;SDS011;61072;47.808;7.636;2022-08-19T05:39:55;11.27;;;9.30;;
21030;SDS011;61072;47.808;7.636;2022-08-19T05:42:22;10.57;;;9.13;;
21030;SDS011;61072;47.808;7.636;2022-08-19T05:44:49;11.68;;;9.70;;
21030;SDS011;61072;47.808;7.636;2022-08-19T05:47:17;10.60;;;9.60;;
21030;SDS011;61072;47.808;7.636;2022-08-19T05:49:46;10.38;;;9.27;;
21030;SDS011;61072;47.808;7.636;2022-08-19T05:52:13;10.77;;;9.65;;
21030;SDS011;61072;47.808;7.636;2022-08-19T05:54:51;12.65;;;9.95;;
21030;SDS011;61072;47.808;7.636;2022-08-19T05:57:21;16.75;;;8.52;;
21030;SDS011;61072;47.808;7.636;2022-08-19T05:59:48;10.20;;;8.98;;
21030;SDS011;61072;47.808;7.636;2022-08-19T06:02:24;11.40;;;9.15;;
21030;SDS011;61072;47.808;7.636;2022-08-19T06:04:52;10.10;;;9.10;;
21030;SDS011;61072;47.808;7.636;2022-08-19T06:07:19;10.55;;;9.20;;
21030;SDS011;61072;47.808;7.636;2022-08-19T06:09:45;13.00;;;9.73;;
21030;SDS011;61072;47.808;7.636;2022-08-19T06:12:27;11.02;;;9.10;;
21030;SDS011;61072;47.808;7.636;2022-08-19T06:14:57;12.90;;;9.70;;
21030;SDS011;61072;47.808;7.636;2022-08-19T06:17:27;10.57;;;9.47;;
21030;SDS011;61072;47.808;7.636;2022-08-19T06:19:56;11.02;;;9.82;;
21030;SDS011;61072;47.808;7.636;2022-08-19T06:22:24;13.32;;;9.77;;
21030;SDS011;61072;47.808;7.636;2022-08-19T06:24:52;10.95;;;8.75;;
21030;SDS011;61072;47.808;7.636;2022-08-19T06:27:20;16.85;;;10.05;;
21030;SDS011;61072;47.808;7.636;2022-08-19T06:29:47;11.57;;;10.07;;
21030;SDS011;61072;47.808;7.636;2022-08-19T06:32:14;12.50;;;10.00;;
21030;SDS011;61072;47.808;7.636;2022-08-19T06:34:44;11.13;;;9.95;;
21030;SDS011;61072;47.808;7.636;2022-08-19T06:37:12;11.10;;;9.82;;
21030;SDS011;61072;47.808;7.636;2022-08-19T06:39:39;14.85;;;10.82;;
21030;SDS011;61072;47.808;7.636;2022-08-19T06:42:08;11.20;;;10.07;;
21030;SDS011;61072;47.808;7.636;2022-08-19T06:44:38;13.68;;;11.30;;
21030;SDS011;61072;47.808;7.636;2022-08-19T06:47:09;13.55;;;10.70;;
21030;SDS011;61072;47.808;7.636;2022-08-19T06:49:48;13.07;;;11.02;;
21030;SDS011;61072;47.808;7.636;2022-08-19T06:52:15;10.68;;;9.57;;
21030;SDS011;61072;47.808;7.636;2022-08-19T06:54:42;11.60;;;10.35;;
21030;SDS011;61072;47.808;7.636;2022-08-19T06:57:20;11.25;;;10.10;;
21030;SDS011;61072;47.808;7.636;2022-08-19T06:59:47;11.32;;;10.23;;
21030;SDS011;61072;47.808;7.636;2022-08-19T07:02:14;11.25;;;10.15;;
21030;SDS011;61072;47.808;7.636;2022-08-19T07:04:41;11.57;;;9.90;;
21030;SDS011;61072;47.808;7.636;2022-08-19T07:07:09;10.95;;;9.77;;
21030;SDS011;61072;47.808;7.636;2022-08-19T07:09:47;12.95;;;9.90;;
21030;SDS011;61072;47.808;7.636;2022-08-19T07:12:26;11.43;;;10.23;;
21030;SDS011;61072;47.808;7.636;2022-08-19T07:15:01;12.18;;;10.88;;
21030;SDS011;61072;47.808;7.636;2022-08-19T07:17:32;11.45;;;10.30;;
21030;SDS011;61072;47.808;7.636;2022-08-19T07:20:00;14.25;;;10.63;;
21030;SDS011;61072;47.808;7.636;2022-08-19T07:22:32;12.68;;;11.30;;
21030;SDS011;61072;47.808;7.636;2022-08-19T07:24:59;13.63;;;11.48;;
21030;SDS011;61072;47.808;7.636;2022-08-19T07:27:29;12.43;;;10.35;;
21030;SDS011;61072;47.808;7.636;2022-08-19T07:29:58;12.32;;;11.10;;
21030;SDS011;61072;47.808;7.636;2022-08-19T07:32:25;19.08;;;11.23;;
21030;SDS011;61072;47.808;7.636;2022-08-19T07:34:58;12.15;;;10.95;;
21030;SDS011;61072;47.808;7.636;2022-08-19T07:37:26;13.05;;;11.85;;
21030;SDS011;61072;47.808;7.636;2022-08-19T07:39:58;12.13;;;10.90;;
21030;SDS011;61072;47.808;7.636;2022-08-19T07:42:26;12.52;;;10.20;;
21030;SDS011;61072;47.808;7.636;2022-08-19T07:44:56;16.63;;;11.85;;
21030;SDS011;61072;47.808;7.636;2022-08-19T07:47:24;12.85;;;11.48;;
21030;SDS011;61072;47.808;7.636;2022-08-19T07:50:11;12.32;;;11.05;;
21030;SDS011;61072;47.808;7.636;2022-08-19T07:52:37;15.15;;;11.75;;
21030;SDS011;61072;47.808;7.636;2022-08-19T07:55:06;13.85;;;12.05;;
21030;SDS011;61072;47.808;7.636;2022-08-19T07:57:54;14.32;;;11.27;;
21030;SDS011;61072;47.808;7.636;2022-08-19T08:00:21;13.98;;;10.60;;
21030;SDS011;61072;47.808;7.636;2022-08-19T08:02:49;16.08;;;11.00;;
21030;SDS011;61072;47.808;7.636;2022-08-19T08:05:20;11.80;;;10.65;;
21030;SDS011;61072;47.808;7.636;2022-08-19T08:08:09;11.98;;;10.88;;
21030;SDS011;61072;47.808;7.636;2022-08-19T08:11:14;12.10;;;10.90;;
21030;SDS011;61072;47.808;7.636;2022-08-19T08:13:45;13.52;;;12.18;;
21030;SDS011;61072;47.808;7.636;2022-08-19T08:16:25;13.55;;;12.02;;
21030;SDS011;61072;47.808;7.636;2022-08-19T08:18:56;13.77;;;11.35;;
21030;SDS011;61072;47.808;7.636;2022-08-19T08:21:23;12.38;;;11.18;;
21030;SDS011;61072;47.808;7.636;2022-08-19T08:23:50;12.85;;;11.55;;
21030;SDS011;61072;47.808;7.636;2022-08-19T08:26:21;12.63;;;11.43;;
21030;SDS011;61072;47.808;7.636;2022-08-19T08:28:48;12.27;;;11.05;;
21030;SDS011;61072;47.808;7.636;2022-08-19T08:31:16;13.63;;;12.23;;
21030;SDS011;61072;47.808;7.636;2022-08-19T08:33:45;14.05;;;12.55;;
21030;SDS011;61072;47.808;7.636;2022-08-19T08:36:13;16.55;;;12.50;;
21030;SDS011;61072;47.808;7.636;2022-08-19T08:38:41;15.10;;;12.75;;
21030;SDS011;61072;47.808;7.636;2022-08-19T08:43:54;15.02;;;13.43;;
21030;SDS011;61072;47.808;7.636;2022-08-19T08:46:39;15.25;;;13.75;;
21030;SDS011;61072;47.808;7.636;2022-08-19T08:52:18;17.33;;;15.45;;
21030;SDS011;61072;47.808;7.636;2022-08-19T08:54:57;20.77;;;16.80;;
21030;SDS011;61072;47.808;7.636;2022-08-19T08:57:37;17.70;;;16.00;;
21030;SDS011;61072;47.808;7.636;2022-08-19T09:00:25;19.90;;;16.33;;
21030;SDS011;61072;47.808;7.636;2022-08-19T09:02:56;19.08;;;17.08;;
21030;SDS011;61072;47.808;7.636;2022-08-19T09:05:30;19.98;;;16.30;;
21030;SDS011;61072;47.808;7.636;2022-08-19T09:08:19;22.08;;;16.55;;
21030;SDS011;61072;47.808;7.636;2022-08-19T09:10:51;18.08;;;15.88;;
21030;SDS011;61072;47.808;7.636;2022-08-19T09:13:32;20.38;;;17.88;;
21030;SDS011;61072;47.808;7.636;2022-08-19T09:16:12;20.88;;;17.42;;
21030;SDS011;61072;47.808;7.636;2022-08-19T09:18:49;20.63;;;16.55;;
21030;SDS011;61072;47.808;7.636;2022-08-19T09:21:21;18.80;;;16.10;;
21030;SDS011;61072;47.808;7.636;2022-08-19T09:23:55;18.73;;;15.77;;
21030;SDS011;61072;47.808;7.636;2022-08-19T09:26:25;21.58;;;17.83;;
21030;SDS011;61072;47.808;7.636;2022-08-19T09:29:13;20.08;;;17.00;;
21030;SDS011;61072;47.808;7.636;2022-08-19T09:31:40;19.75;;;17.45;;
21030;SDS011;61072;47.808;7.636;2022-08-19T09:34:06;17.95;;;16.13;;
21030;SDS011;61072;47.808;7.636;2022-08-19T09:36:46;21.85;;;17.48;;
21030;SDS011;61072;47.808;7.636;2022-08-19T09:39:18;22.08;;;17.05;;
21030;SDS011;61072;47.808;7.636;2022-08-19T09:41:45;19.70;;;17.40;;
21030;SDS011;61072;47.808;7.636;2022-08-19T09:44:14;21.65;;;17.73;;
21030;SDS011;61072;47.808;7.636;2022-08-19T09:46:43;20.67;;;18.30;;
21030;SDS011;61072;47.808;7.636;2022-08-19T09:49:10;21.15;;;18.77;;
21030;SDS011;61072;47.808;7.636;2022-08-19T09:51:38;21.92;;;19.52;;
21030;SDS011;61072;47.808;7.636;2022-08-19T09:54:06;23.15;;;18.52;;
21030;SDS011;61072;47.808;7.636;2022-08-19T09:59:03;22.20;;;18.85;;
21030;SDS011;61072;47.808;7.636;2022-08-19T10:01:30;21.77;;;19.58;;
21030;SDS011;61072;47.808;7.636;2022-08-19T10:03:59;21.88;;;19.40;;
21030;SDS011;61072;47.808;7.636;2022-08-19T10:06:34;19.65;;;17.35;;
21030;SDS011;61072;47.808;7.636;2022-08-19T10:09:12;21.92;;;19.63;;
21030;SDS011;61072;47.808;7.636;2022-08-19T10:11:40;23.60;;;21.10;;
21030;SDS011;61072;47.808;7.636;2022-08-19T10:14:19;24.63;;;19.35;;
21030;SDS011;61072;47.808;7.636;2022-08-19T10:16:48;24.85;;;19.95;;
21030;SDS011;61072;47.808;7.636;2022-08-19T10:19:18;24.87;;;20.03;;
21030;SDS011;61072;47.808;7.636;2022-08-19T10:21:51;20.88;;;18.13;;
21030;SDS011;61072;47.808;7.636;2022-08-19T10:24:25;29.48;;;20.73;;
21030;SDS011;61072;47.808;7.636;2022-08-19T10:26:53;26.02;;;21.25;;
21030;SDS011;61072;47.808;7.636;2022-08-19T10:29:22;24.45;;;19.92;;
21030;SDS011;61072;47.808;7.636;2022-08-19T10:31:59;22.98;;;19.50;;
21030;SDS011;61072;47.808;7.636;2022-08-19T10:34:35;23.60;;;20.80;;
21030;SDS011;61072;47.808;7.636;2022-08-19T10:37:14;22.73;;;20.10;;
21030;SDS011;61072;47.808;7.636;2022-08-19T10:39:54;21.83;;;19.40;;
21030;SDS011;61072;47.808;7.636;2022-08-19T10:42:21;25.95;;;19.80;;
21030;SDS011;61072;47.808;7.636;2022-08-19T10:44:48;22.15;;;19.85;;
21030;SDS011;61072;47.808;7.636;2022-08-19T10:47:17;27.25;;;21.25;;
21030;SDS011;61072;47.808;7.636;2022-08-19T10:49:54;26.38;;;21.33;;
21030;SDS011;61072;47.808;7.636;2022-08-19T10:52:41;24.48;;;19.88;;
21030;SDS011;61072;47.808;7.636;2022-08-19T10:55:16;28.15;;;20.98;;
21030;SDS011;61072;47.808;7.636;2022-08-19T10:58:04;22.92;;;20.30;;
21030;SDS011;61072;47.808;7.636;2022-08-19T11:00:39;25.35;;;20.13;;
21030;SDS011;61072;47.808;7.636;2022-08-19T11:03:08;22.60;;;20.23;;
21030;SDS011;61072;47.808;7.636;2022-08-19T11:05:35;22.90;;;20.45;;
21030;SDS011;61072;47.808;7.636;2022-08-19T11:10:49;21.10;;;18.75;;
21030;SDS011;61072;47.808;7.636;2022-08-19T11:13:17;23.52;;;18.88;;
21030;SDS011;61072;47.808;7.636;2022-08-19T11:15:43;21.48;;;19.25;;
21030;SDS011;61072;47.808;7.636;2022-08-19T11:18:11;25.27;;;19.48;;
21030;SDS011;61072;47.808;7.636;2022-08-19T11:20:38;23.33;;;19.98;;
21030;SDS011;61072;47.808;7.636;2022-08-19T11:23:05;23.00;;;19.67;;
21030;SDS011;61072;47.808;7.636;2022-08-19T11:25:32;22.35;;;19.17;;
21030;SDS011;61072;47.808;7.636;2022-08-19T11:27:59;21.70;;;19.25;;
21030;SDS011;61072;47.808;7.636;2022-08-19T11:30:26;24.65;;;21.00;;
21030;SDS011;61072;47.808;7.636;2022-08-19T11:32:53;22.20;;;19.83;;
21030;SDS011;61072;47.808;7.636;2022-08-19T11:35:20;26.45;;;21.63;;
21030;SDS011;61072;47.808;7.636;2022-08-19T11:37:49;24.73;;;21.08;;
21030;SDS011;61072;47.808;7.636;2022-08-19T11:40:16;25.60;;;19.65;;
21030;SDS011;61072;47.808;7.636;2022-08-19T11:42:42;25.55;;;20.42;;
21030;SDS011;61072;47.808;7.636;2022-08-19T11:45:23;22.20;;;19.90;;
21030;SDS011;61072;47.808;7.636;2022-08-19T11:47:51;23.52;;;19.58;;
21030;SDS011;61072;47.808;7.636;2022-08-19T11:50:19;21.70;;;19.38;;
21030;SDS011;61072;47.808;7.636;2022-08-19T11:52:46;22.95;;;18.77;;
21030;SDS011;61072;47.808;7.636;2022-08-19T11:55:13;20.13;;;17.65;;
21030;SDS011;61072;47.808;7.636;2022-08-19T11:57:40;20.40;;;18.30;;
21030;SDS011;61072;47.808;7.636;2022-08-19T12:00:07;24.00;;;18.52;;
21030;SDS011;61072;47.808;7.636;2022-08-19T12:02:37;23.10;;;20.60;;
21030;SDS011;61072;47.808;7.636;2022-08-19T12:05:03;23.98;;;17.92;;
21030;SDS011;61072;47.808;7.636;2022-08-19T12:07:37;21.77;;;17.65;;
21030;SDS011;61072;47.808;7.636;2022-08-19T12:10:04;20.85;;;18.08;;
21030;SDS011;61072;47.808;7.636;2022-08-19T12:12:33;19.13;;;17.10;;
21030;SDS011;61072;47.808;7.636;2022-08-19T12:15:00;19.05;;;16.95;;
21030;SDS011;61072;47.808;7.636;2022-08-19T12:17:27;21.83;;;19.38;;
21030;SDS011;61072;47.808;7.636;2022-08-19T12:19:54;28.80;;;23.17;;
21030;SDS011;61072;47.808;7.636;2022-08-19T12:22:20;28.52;;;24.05;;
21030;SDS011;61072;47.808;7.636;2022-08-19T12:24:48;31.55;;;23.63;;
21030;SDS011;61072;47.808;7.636;2022-08-19T12:27:17;31.58;;;27.98;;
21030;SDS011;61072;47.808;7.636;2022-08-19T12:30:04;34.38;;;28.15;;
21030;SDS011;61072;47.808;7.636;2022-08-19T12:32:33;40.47;;;28.65;;
21030;SDS011;61072;47.808;7.636;2022-08-19T12:35:00;34.25;;;29.27;;
21030;SDS011;61072;47.808;7.636;2022-08-19T12:37:27;30.35;;;25.85;;
21030;SDS011;61072;47.808;7.636;2022-08-19T12:39:54;37.38;;;29.65;;
21030;SDS011;61072;47.808;7.636;2022-08-19T12:42:21;32.28;;;27.25;;
21030;SDS011;61072;47.808;7.636;2022-08-19T12:44:48;28.38;;;25.27;;
21030;SDS011;61072;47.808;7.636;2022-08-19T12:47:15;39.60;;;26.48;;
21030;SDS011;61072;47.808;7.636;2022-08-19T12:49:44;32.33;;;26.55;;
21030;SDS011;61072;47.808;7.636;2022-08-19T12:52:21;32.80;;;26.42;;
21030;SDS011;61072;47.808;7.636;2022-08-19T12:54:50;28.30;;;25.00;;
21030;SDS011;61072;47.808;7.636;2022-08-19T12:57:20;27.45;;;24.13;;
21030;SDS011;61072;47.808;7.636;2022-08-19T13:00:08;27.83;;;24.85;;
21030;SDS011;61072;47.808;7.636;2022-08-19T13:02:42;27.13;;;22.38;;
21030;SDS011;61072;47.808;7.636;2022-08-19T13:05:12;30.10;;;24.08;;
21030;SDS011;61072;47.808;7.636;2022-08-19T13:07:42;28.05;;;23.90;;
21030;SDS011;61072;47.808;7.636;2022-08-19T13:10:11;30.88;;;23.67;;
21030;SDS011;61072;47.808;7.636;2022-08-19T13:12:39;27.27;;;23.58;;
21030;SDS011;61072;47.808;7.636;2022-08-19T13:15:07;25.15;;;22.45;;
21030;SDS011;61072;47.808;7.636;2022-08-19T13:17:36;26.83;;;22.88;;
21030;SDS011;61072;47.808;7.636;2022-08-19T13:20:04;24.88;;;22.20;;
21030;SDS011;61072;47.808;7.636;2022-08-19T13:22:34;28.00;;;23.63;;
21030;SDS011;61072;47.808;7.636;2022-08-19T13:25:02;24.83;;;22.33;;
21030;SDS011;61072;47.808;7.636;2022-08-19T13:27:31;25.02;;;22.42;;
21030;SDS011;61072;47.808;7.636;2022-08-19T13:29:58;26.20;;;22.80;;
21030;SDS011;61072;47.808;7.636;2022-08-19T13:32:44;28.42;;;22.90;;
21030;SDS011;61072;47.808;7.636;2022-08-19T13:35:29;23.90;;;21.33;;
21030;SDS011;61072;47.808;7.636;2022-08-19T13:37:56;22.15;;;19.95;;
21030;SDS011;61072;47.808;7.636;2022-08-19T13:40:23;23.45;;;20.98;;
21030;SDS011;61072;47.808;7.636;2022-08-19T13:42:52;24.47;;;21.93;;
21030;SDS011;61072;47.808;7.636;2022-08-19T13:45:21;23.77;;;20.75;;
21030;SDS011;61072;47.808;7.636;2022-08-19T13:47:51;23.08;;;20.52;;
21030;SDS011;61072;47.808;7.636;2022-08-19T13:50:26;22.42;;;20.08;;
21030;SDS011;61072;47.808;7.636;2022-08-19T13:52:55;20.50;;;18.42;;
21030;SDS011;61072;47.808;7.636;2022-08-19T13:55:22;22.25;;;20.05;;
21030;SDS011;61072;47.808;7.636;2022-08-19T13:57:54;20.05;;;17.92;;
21030;SDS011;61072;47.808;7.636;2022-08-19T14:00:23;20.67;;;18.58;;
21030;SDS011;61072;47.808;7.636;2022-08-19T14:02:53;22.05;;;19.17;;
21030;SDS011;61072;47.808;7.636;2022-08-19T14:05:21;22.33;;;20.20;;
21030;SDS011;61072;47.808;7.636;2022-08-19T14:07:50;20.25;;;18.20;;
21030;SDS011;61072;47.808;7.636;2022-08-19T14:10:17;21.70;;;19.42;;
21030;SDS011;61072;47.808;7.636;2022-08-19T14:12:44;21.65;;;19.45;;
21030;SDS011;61072;47.808;7.636;2022-08-19T14:15:12;18.70;;;16.88;;
21030;SDS011;61072;47.808;7.636;2022-08-19T14:17:41;18.58;;;16.73;;
21030;SDS011;61072;47.808;7.636;2022-08-19T14:20:10;19.08;;;17.27;;
21030;SDS011;61072;47.808;7.636;2022-08-19T14:22:44;18.20;;;16.50;;
21030;SDS011;61072;47.808;7.636;2022-08-19T14:25:14;21.63;;;16.83;;
21030;SDS011;61072;47.808;7.636;2022-08-19T14:27:46;17.65;;;15.80;;
21030;SDS011;61072;47.808;7.636;2022-08-19T14:30:15;16.70;;;14.95;;
21030;SDS011;61072;47.808;7.636;2022-08-19T14:32:43;17.70;;;15.95;;
21030;SDS011;61072;47.808;7.636;2022-08-19T14:35:11;16.85;;;15.18;;
21030;SDS011;61072;47.808;7.636;2022-08-19T14:37:39;17.02;;;15.35;;
21030;SDS011;61072;47.808;7.636;2022-08-19T14:40:11;18.05;;;16.33;;
21030;SDS011;61072;47.808;7.636;2022-08-19T14:42:40;18.15;;;16.25;;
21030;SDS011;61072;47.808;7.636;2022-08-19T14:45:08;18.52;;;16.25;;
21030;SDS011;61072;47.808;7.636;2022-08-19T14:47:36;17.10;;;14.82;;
21030;SDS011;61072;47.808;7.636;2022-08-19T14:50:06;16.88;;;15.13;;
21030;SDS011;61072;47.808;7.636;2022-08-19T14:52:42;17.50;;;15.90;;
21030;SDS011;61072;47.808;7.636;2022-08-19T14:55:09;17.73;;;15.77;;
21030;SDS011;61072;47.808;7.636;2022-08-19T14:57:36;17.13;;;15.50;;
21030;SDS011;61072;47.808;7.636;2022-08-19T15:00:03;16.30;;;14.68;;
21030;SDS011;61072;47.808;7.636;2022-08-19T15:02:30;16.23;;;14.60;;
21030;SDS011;61072;47.808;7.636;2022-08-19T15:05:00;16.92;;;15.18;;